createdAt,value
2022-10-23T00:04:44.859Z,9.52
2022-10-23T00:09:47.485Z,5.30
2022-10-23T00:14:50.101Z,5.47
2022-10-23T00:19:54.148Z,6.00
2022-10-23T00:24:56.759Z,8.07
2022-10-23T00:29:59.391Z,6.55
2022-10-23T00:35:03.495Z,7.00
2022-10-23T00:40:07.452Z,5.93
2022-10-23T00:45:22.940Z,5.85
2022-10-23T00:50:28.568Z,4.82
2022-10-23T00:55:33.796Z,5.57
2022-10-23T01:00:44.599Z,6.13
2022-10-23T01:05:50.959Z,5.35
2022-10-23T01:10:57.320Z,5.65
2022-10-23T01:16:08.522Z,7.57
2022-10-23T01:21:15.247Z,6.30
2022-10-23T01:26:30.440Z,4.60
2022-10-23T01:31:37.824Z,3.55
2022-10-23T01:36:43.087Z,4.47
2022-10-23T01:41:48.230Z,5.10
2022-10-23T01:46:58.975Z,3.90
2022-10-23T01:52:08.123Z,4.47
2022-10-23T01:57:14.245Z,3.35
2022-10-23T02:02:19.107Z,4.68
2022-10-23T02:07:22.516Z,4.40
2022-10-23T02:12:31.414Z,5.22
2022-10-23T02:17:44.888Z,4.38
2022-10-23T02:22:55.376Z,4.55
2022-10-23T02:27:59.497Z,5.63
2022-10-23T02:33:11.769Z,4.43
2022-10-23T02:38:36.215Z,5.25
2022-10-23T02:43:43.051Z,4.65
2022-10-23T02:48:54.914Z,3.42
2022-10-23T02:54:02.259Z,3.92
2022-10-23T02:59:12.085Z,6.18
2022-10-23T03:04:17.631Z,3.95
2022-10-23T03:09:20.389Z,2.65
2022-10-23T03:14:23.067Z,3.33
2022-10-23T03:19:27.768Z,3.22
2022-10-23T03:24:32.249Z,3.22
2022-10-23T03:29:34.964Z,3.75
2022-10-23T03:34:39.086Z,3.10
2022-10-23T03:39:45.175Z,3.08
2022-10-23T03:44:47.918Z,4.63
2022-10-23T03:49:51.942Z,2.63
2022-10-23T03:54:54.678Z,4.78
2022-10-23T03:59:57.414Z,3.28
2022-10-23T04:05:07.714Z,3.38
2022-10-23T04:10:11.016Z,2.78
2022-10-23T04:15:13.725Z,2.78
2022-10-23T04:20:20.754Z,3.05
2022-10-23T04:25:23.568Z,3.20
2022-10-23T04:30:26.310Z,3.42
2022-10-23T04:35:30.367Z,2.90
2022-10-23T04:40:33.069Z,3.95
2022-10-23T04:45:35.862Z,2.40
2022-10-23T04:50:39.905Z,3.17
2022-10-23T04:56:03.719Z,8.20
2022-10-23T05:01:13.296Z,484.80
2022-10-23T05:06:17.460Z,525.30
2022-10-23T05:11:40.451Z,593.20
2022-10-23T05:16:48.195Z,603.45
2022-10-23T05:21:55.750Z,667.45
2022-10-23T05:27:02.123Z,719.38
2022-10-23T05:32:08.035Z,718.75
2022-10-23T05:37:14.987Z,681.20
2022-10-23T05:42:18.263Z,698.63
2022-10-23T05:47:21.943Z,720.45
2022-10-23T05:52:49.027Z,692.58
2022-10-23T05:58:11.966Z,623.17
2022-10-23T06:03:35.055Z,626.75
2022-10-23T06:08:41.759Z,629.60
2022-10-23T06:13:45.184Z,563.85
2022-10-23T06:18:57.400Z,611.20
2022-10-23T06:24:01.531Z,600.88
2022-10-23T06:29:30.759Z,565.13
2022-10-23T06:34:33.575Z,553.65
2022-10-23T06:39:40.356Z,539.58
2022-10-23T06:44:48.878Z,466.45
2022-10-23T06:49:59.890Z,515.70
2022-10-23T06:55:04.279Z,503.85
2022-10-23T07:00:12.225Z,504.63
2022-10-23T07:05:24.383Z,448.98
2022-10-23T07:10:28.754Z,412.70
2022-10-23T07:15:33.703Z,391.27
2022-10-23T07:20:36.778Z,414.00
2022-10-23T07:25:41.267Z,391.02
2022-10-23T07:30:44.963Z,360.05
2022-10-23T07:35:49.954Z,394.70
2022-10-23T07:41:02.314Z,388.92
2022-10-23T07:46:05.441Z,315.45
2022-10-23T17:31:46.336Z,11.15
2022-10-23T17:36:51.563Z,12.18
2022-10-23T17:41:54.815Z,9.43
2022-10-23T17:46:58.834Z,13.60
2022-10-23T17:52:01.810Z,14.20
2022-10-23T17:57:04.438Z,17.98
2022-10-23T18:02:08.543Z,16.55
2022-10-23T18:07:11.569Z,15.25
2022-10-23T18:12:14.167Z,16.17
2022-10-23T18:17:18.139Z,13.40
2022-10-23T18:22:20.831Z,15.68
2022-10-23T18:27:23.580Z,11.88
2022-10-23T18:32:27.837Z,14.98
2022-10-23T18:37:33.885Z,17.40
2022-10-23T18:42:38.573Z,11.35
2022-10-23T18:47:42.854Z,14.25
2022-10-23T18:52:45.995Z,12.77
2022-10-23T18:57:48.619Z,12.55
2022-10-23T19:02:52.830Z,10.48
2022-10-23T19:07:55.663Z,9.68
2022-10-23T19:12:58.265Z,14.80
2022-10-23T19:18:02.650Z,12.07
2022-10-23T19:23:06.456Z,12.32
2022-10-23T19:28:10.096Z,10.80
2022-10-23T19:33:14.036Z,11.70
2022-10-23T19:38:16.686Z,9.10
2022-10-23T19:43:19.356Z,9.57
2022-10-23T19:48:23.281Z,11.40
2022-10-23T19:53:26.068Z,10.50
2022-10-23T19:58:28.688Z,8.98
2022-10-23T20:03:32.654Z,8.63
2022-10-23T20:08:35.360Z,11.00
2022-10-23T20:13:38.001Z,11.38
2022-10-23T20:18:41.925Z,13.82
2022-10-23T20:23:45.212Z,12.13
2022-10-23T20:28:48.444Z,9.75
2022-10-23T20:33:52.946Z,11.73
2022-10-23T20:38:56.619Z,11.93
2022-10-23T20:43:59.263Z,9.68
2022-10-23T20:49:03.288Z,10.57
2022-10-23T20:54:06.187Z,13.10
2022-10-23T20:59:11.796Z,9.60
2022-10-23T21:04:15.977Z,7.22
2022-10-23T21:09:18.594Z,10.93
2022-10-23T21:14:21.168Z,7.90
2022-10-23T21:19:25.118Z,8.65
2022-10-23T21:24:27.835Z,9.20
2022-10-23T21:29:30.556Z,8.95
2022-10-23T21:34:34.716Z,7.15
2022-10-23T21:39:37.360Z,7.03
2022-10-23T21:44:40.157Z,8.38
2022-10-23T21:49:44.349Z,8.70
2022-10-23T21:54:46.916Z,5.90
2022-10-23T21:59:49.726Z,8.05
2022-10-23T22:04:54.252Z,7.25
2022-10-23T22:09:56.870Z,8.30
2022-10-23T22:14:59.473Z,7.82
2022-10-23T22:20:03.395Z,6.53
2022-10-23T22:25:07.027Z,7.10
2022-10-23T22:30:10.267Z,6.75
2022-10-23T22:35:14.262Z,8.15
2022-10-23T22:40:16.975Z,6.10
2022-10-23T22:45:19.584Z,7.57
2022-10-23T22:50:23.611Z,9.90
2022-10-23T22:55:26.229Z,8.00
2022-10-23T23:00:28.812Z,7.90
2022-10-23T23:05:32.871Z,6.45
2022-10-23T23:10:35.488Z,4.70
2022-10-23T23:15:40.702Z,6.47
2022-10-23T23:20:44.742Z,8.05
2022-10-23T23:25:49.331Z,7.70
2022-10-23T23:31:03.253Z,6.50
2022-10-23T23:36:10.031Z,6.53
2022-10-23T23:41:13.587Z,5.80
2022-10-23T23:46:16.681Z,5.10
2022-10-23T23:51:25.135Z,7.32
2022-10-23T23:56:28.005Z,5.38
